createdAt,value
2022-07-26T00:01:54.591Z,3.90
2022-07-26T00:05:24.834Z,2.40
2022-07-26T00:08:39.909Z,3.30
2022-07-26T00:11:40.678Z,2.30
2022-07-26T00:14:43.029Z,2.50
2022-07-26T00:18:02.302Z,2.60
2022-07-26T00:21:55.415Z,2.20
2022-07-26T00:25:31.707Z,1.90
2022-07-26T00:28:46.196Z,2.10
2022-07-26T00:32:38.441Z,2.20
2022-07-26T00:35:46.273Z,1.70
2022-07-26T00:38:54.230Z,1.50
2022-07-26T00:42:13.120Z,1.40
2022-07-26T00:49:05.410Z,2.10
2022-07-26T00:52:29.693Z,2.00
2022-07-26T00:55:51.150Z,1.90
2022-07-26T00:59:53.134Z,1.40
2022-07-26T01:03:21.543Z,1.90
2022-07-26T01:07:15.331Z,2.20
2022-07-26T01:11:01.169Z,1.60
2022-07-26T01:14:56.570Z,1.50
2022-07-26T01:18:53.101Z,2.10
2022-07-26T01:22:09.964Z,1.40
2022-07-26T01:26:07.910Z,1.80
2022-07-26T01:29:14.161Z,1.60
2022-07-26T01:32:34.479Z,1.70
2022-07-26T01:36:22.489Z,1.70
2022-07-26T01:39:29.085Z,1.50
2022-07-26T01:43:19.466Z,1.60
2022-07-26T01:46:07.302Z,1.80
2022-07-26T01:49:21.384Z,1.80
2022-07-26T01:52:38.597Z,2.00
2022-07-26T01:55:26.442Z,2.20
2022-07-26T01:58:31.895Z,1.60
2022-07-26T02:02:08.697Z,2.50
2022-07-26T02:05:13.891Z,1.70
2022-07-26T02:07:44.717Z,1.50
2022-07-26T02:10:51.213Z,2.20
2022-07-26T02:14:25.548Z,2.10
2022-07-26T02:18:00.948Z,2.30
2022-07-26T02:21:23.066Z,2.40
2022-07-26T02:23:57.492Z,1.80
2022-07-26T02:26:24.383Z,1.40
2022-07-26T02:28:51.180Z,2.00
2022-07-26T02:31:18.054Z,1.70
2022-07-26T02:33:45.500Z,2.40
2022-07-26T02:36:22.986Z,1.90
2022-07-26T02:39:45.179Z,1.40
2022-07-26T02:43:53.123Z,1.70
2022-07-26T02:47:37.804Z,1.90
2022-07-26T02:51:18.449Z,1.90
2022-07-26T02:54:48.450Z,1.70
2022-07-26T02:55:25.228Z,2.08
2022-07-26T02:57:52.210Z,2.33
2022-07-26T02:58:27.968Z,1.70
2022-07-26T03:00:22.556Z,2.90
2022-07-26T03:01:42.191Z,1.70
2022-07-26T03:02:51.178Z,2.55
2022-07-26T03:05:18.921Z,2.40
2022-07-26T03:05:35.002Z,1.70
2022-07-26T03:07:45.770Z,2.42
2022-07-26T03:09:25.808Z,1.70
2022-07-26T03:10:13.354Z,3.00
2022-07-26T03:12:39.963Z,2.03
2022-07-26T03:13:04.334Z,1.50
2022-07-26T03:15:06.977Z,1.75
2022-07-26T03:16:35.073Z,1.50
2022-07-26T03:17:33.524Z,2.83
2022-07-26T03:20:00.214Z,2.28
2022-07-26T03:20:01.315Z,1.90
2022-07-26T03:22:26.858Z,2.42
2022-07-26T03:23:21.935Z,2.30
2022-07-26T03:24:53.406Z,2.42
2022-07-26T03:26:40.212Z,1.70
2022-07-26T03:27:20.119Z,2.63
2022-07-26T03:29:46.780Z,2.20
2022-07-26T03:30:15.101Z,1.50
2022-07-26T03:32:13.520Z,2.38
2022-07-26T03:33:54.794Z,1.70
2022-07-26T03:34:40.120Z,2.47
2022-07-26T03:37:06.755Z,2.22
2022-07-26T03:37:24.403Z,1.70
2022-07-26T03:39:33.348Z,2.58
2022-07-26T03:40:46.691Z,1.60
2022-07-26T03:41:59.916Z,2.08
2022-07-26T03:44:26.542Z,2.72
2022-07-26T03:44:45.176Z,1.70
2022-07-26T03:46:53.081Z,2.55
2022-07-26T03:47:37.455Z,2.50
2022-07-26T03:49:19.801Z,1.75
2022-07-26T03:50:43.009Z,1.90
2022-07-26T03:51:46.479Z,2.53
2022-07-26T03:54:13.110Z,2.67
2022-07-26T03:54:26.510Z,1.80
2022-07-26T03:56:40.749Z,2.28
2022-07-26T03:57:41.784Z,1.70
2022-07-26T03:59:09.368Z,2.03
2022-07-26T04:00:52.345Z,2.00
2022-07-26T04:01:42.075Z,2.30
2022-07-26T04:04:09.063Z,2.10
2022-07-26T04:04:09.929Z,2.58
2022-07-26T04:06:38.055Z,2.22
2022-07-26T04:07:32.177Z,2.00
2022-07-26T04:09:06.044Z,2.30
2022-07-26T04:10:48.470Z,1.50
2022-07-26T04:11:33.817Z,2.40
2022-07-26T04:13:56.286Z,2.10
2022-07-26T04:14:01.508Z,2.35
2022-07-26T04:16:28.299Z,2.00
2022-07-26T04:17:36.267Z,2.20
2022-07-26T04:18:54.966Z,3.33
2022-07-26T04:20:59.716Z,2.20
2022-07-26T04:21:22.039Z,2.60
2022-07-26T04:23:51.273Z,2.55
2022-07-26T04:23:51.553Z,2.30
2022-07-26T04:26:21.123Z,2.60
2022-07-26T04:27:02.452Z,2.00
2022-07-26T04:28:48.132Z,2.67
2022-07-26T04:30:36.337Z,2.30
2022-07-26T04:31:15.103Z,2.65
2022-07-26T04:33:41.763Z,2.75
2022-07-26T04:34:10.868Z,2.30
2022-07-26T04:36:08.736Z,3.33
2022-07-26T04:37:23.171Z,2.60
2022-07-26T04:38:35.276Z,2.95
2022-07-26T04:41:02.436Z,3.17
2022-07-26T04:41:29.728Z,2.10
2022-07-26T04:43:29.083Z,2.58
2022-07-26T04:45:08.514Z,2.40
2022-07-26T04:45:57.444Z,2.55
2022-07-26T04:48:25.585Z,2.28
2022-07-26T04:48:56.676Z,1.70
2022-07-26T04:50:52.756Z,1.90
2022-07-26T04:52:38.466Z,1.30
2022-07-26T04:53:19.719Z,1.95
2022-07-26T04:55:46.393Z,1.83
2022-07-26T04:56:16.408Z,1.40
2022-07-26T04:58:13.024Z,1.80
2022-07-26T05:00:16.748Z,1.40
2022-07-26T05:01:03.177Z,1.83
2022-07-26T05:03:27.526Z,1.55
2022-07-26T05:03:47.488Z,1.40
2022-07-26T05:05:54.152Z,2.10
2022-07-26T05:07:28.137Z,1.00
2022-07-26T05:08:20.826Z,1.80
2022-07-26T05:10:53.005Z,1.73
2022-07-26T05:11:06.411Z,1.10
2022-07-26T05:13:23.158Z,2.33
2022-07-26T05:14:23.155Z,1.40
2022-07-26T05:18:21.354Z,1.70
2022-07-26T05:22:31.423Z,1.10
2022-07-26T05:26:39.383Z,0.80
2022-07-26T05:30:47.570Z,0.90
2022-07-26T05:34:55.535Z,1.10
2022-07-26T05:39:03.600Z,1.50
2022-07-26T05:42:52.063Z,1.20
2022-07-26T05:47:00.090Z,1.00
2022-07-26T05:51:07.341Z,1.10
2022-07-26T05:54:55.137Z,1.30
2022-07-26T05:58:35.996Z,1.20
2022-07-26T06:02:03.690Z,1.20
2022-07-26T06:04:51.536Z,1.00
2022-07-26T06:07:41.269Z,1.40
2022-07-26T06:10:09.204Z,1.60
2022-07-26T06:12:48.676Z,1.40
2022-07-26T06:15:42.957Z,1.30
2022-07-26T06:19:29.566Z,1.30
2022-07-26T06:23:10.103Z,1.20
2022-07-26T06:25:47.018Z,1.30
2022-07-26T06:28:39.532Z,1.70
2022-07-26T06:31:06.914Z,2.00
2022-07-26T06:33:34.189Z,1.50
2022-07-26T06:36:01.157Z,1.50
2022-07-26T06:38:30.361Z,1.30
2022-07-26T06:41:00.292Z,1.60
2022-07-26T06:43:27.664Z,1.80
2022-07-26T06:45:55.172Z,1.70
2022-07-26T06:48:27.601Z,1.50
2022-07-26T06:51:10.145Z,1.40
2022-07-26T06:54:13.608Z,1.30
2022-07-26T06:57:06.395Z,1.00
2022-07-26T07:00:26.551Z,1.00
2022-07-26T07:03:47.153Z,0.80
2022-07-26T07:06:17.468Z,0.60
2022-07-26T07:08:53.446Z,0.70
2022-07-26T07:12:09.360Z,0.60
2022-07-26T07:15:20.097Z,0.70
2022-07-26T07:17:49.638Z,0.70
2022-07-26T07:20:20.386Z,0.40
2022-07-26T07:22:47.485Z,0.40
2022-07-26T07:25:14.970Z,0.70
2022-07-26T07:27:44.680Z,0.50
2022-07-26T07:30:17.090Z,0.70
2022-07-26T07:32:47.990Z,0.80
2022-07-26T07:35:20.459Z,0.90
2022-07-26T07:38:00.227Z,0.40
2022-07-26T07:41:06.926Z,0.50
2022-07-26T07:44:47.925Z,0.60
2022-07-26T07:48:47.599Z,0.50
2022-07-26T07:52:42.572Z,0.60
2022-07-26T07:56:23.224Z,0.60
2022-07-26T08:00:27.176Z,0.60
2022-07-26T08:04:35.551Z,0.70
2022-07-26T08:08:24.822Z,0.60
2022-07-26T08:12:11.281Z,0.80
2022-07-26T08:15:42.618Z,0.40
2022-07-26T08:18:15.517Z,0.40
2022-07-26T08:21:10.947Z,0.50
2022-07-26T08:23:42.690Z,0.60
2022-07-26T08:26:10.719Z,0.60
2022-07-26T08:28:48.366Z,0.80
2022-07-26T08:32:05.316Z,0.70
2022-07-26T08:35:19.758Z,0.60
2022-07-26T08:37:55.342Z,0.50
2022-07-26T08:40:59.765Z,0.80
2022-07-26T08:44:21.566Z,0.50
2022-07-26T08:46:51.506Z,0.30
2022-07-26T08:49:27.444Z,0.40
2022-07-26T08:52:42.950Z,0.50
2022-07-26T09:00:18.378Z,0.40
2022-07-26T09:03:46.260Z,0.30
2022-07-26T09:07:02.818Z,0.40
2022-07-26T09:10:39.147Z,0.50
2022-07-26T09:13:09.608Z,0.50
2022-07-26T09:15:36.475Z,0.60
2022-07-26T09:18:03.655Z,0.40
2022-07-26T09:20:32.183Z,0.50
2022-07-26T09:23:06.410Z,0.60
2022-07-26T09:25:39.349Z,0.60
2022-07-26T09:28:28.932Z,0.70
2022-07-26T09:31:01.873Z,0.50
2022-07-26T09:33:54.936Z,0.50
2022-07-26T09:36:31.382Z,0.50
2022-07-26T09:39:43.832Z,0.50
2022-07-26T09:43:58.279Z,0.40
2022-07-26T09:47:48.091Z,0.50
2022-07-26T09:51:14.915Z,0.30
2022-07-26T09:54:46.709Z,0.50
2022-07-26T10:01:02.449Z,0.60
2022-07-26T10:04:29.803Z,0.40
2022-07-26T10:07:50.027Z,0.60
2022-07-26T10:10:58.678Z,0.60
2022-07-26T10:13:57.657Z,0.60
2022-07-26T10:18:09.995Z,0.70
2022-07-26T10:21:20.316Z,0.50
2022-07-26T10:24:24.080Z,0.40
2022-07-26T10:27:06.252Z,0.50
2022-07-26T10:29:33.151Z,0.40
2022-07-26T10:32:20.111Z,0.60
2022-07-26T10:36:12.956Z,0.60
2022-07-26T10:39:58.734Z,0.50
2022-07-26T10:43:46.286Z,0.60
2022-07-26T10:47:18.516Z,0.50
2022-07-26T10:50:34.785Z,0.60
2022-07-26T10:53:50.462Z,1.10
2022-07-26T10:56:17.438Z,0.60
2022-07-26T10:58:44.262Z,0.70
2022-07-26T11:01:11.397Z,0.60
2022-07-26T11:03:46.805Z,0.60
2022-07-26T11:06:43.138Z,1.00
2022-07-26T11:10:16.105Z,0.90
2022-07-26T11:14:19.228Z,1.30
2022-07-26T11:17:41.969Z,0.80
2022-07-26T11:20:29.585Z,0.70
2022-07-26T11:24:06.477Z,0.90
2022-07-26T11:27:17.676Z,1.10
2022-07-26T11:31:48.183Z,0.50
2022-07-26T11:35:08.156Z,0.80
2022-07-26T11:38:57.530Z,0.70
2022-07-26T11:42:52.047Z,1.10
2022-07-26T11:46:40.274Z,1.10
2022-07-26T11:50:35.435Z,1.20
2022-07-26T11:54:23.232Z,0.70
2022-07-26T11:58:01.656Z,1.00
2022-07-26T12:02:08.133Z,1.20
2022-07-26T12:06:08.807Z,1.00
2022-07-26T12:09:13.543Z,1.00
2022-07-26T12:12:01.044Z,1.40
2022-07-26T12:14:43.121Z,1.00
2022-07-26T12:17:58.647Z,1.20
2022-07-26T12:20:28.171Z,0.90
2022-07-26T12:22:58.342Z,0.90
2022-07-26T12:25:29.422Z,1.40
2022-07-26T12:27:56.549Z,1.00
2022-07-26T12:30:23.904Z,0.80
2022-07-26T12:32:55.384Z,0.90
2022-07-26T12:36:11.559Z,0.80
2022-07-26T12:39:02.263Z,0.80
2022-07-26T12:41:32.715Z,0.70
2022-07-26T12:44:00.185Z,1.00
2022-07-26T12:46:50.796Z,0.60
2022-07-26T12:50:18.631Z,1.10
2022-07-26T12:53:39.743Z,1.00
2022-07-26T12:57:07.581Z,0.90
2022-07-26T13:00:43.533Z,9.00
2022-07-26T13:03:38.639Z,1.40
2022-07-26T13:07:09.729Z,0.90
2022-07-26T13:11:17.673Z,0.80
2022-07-26T13:15:15.546Z,1.10
2022-07-26T13:18:43.349Z,1.10
2022-07-26T13:22:14.150Z,1.00
2022-07-26T13:25:38.337Z,0.90
2022-07-26T13:29:07.649Z,1.30
2022-07-26T13:33:15.756Z,0.80
2022-07-26T13:36:54.471Z,0.80
2022-07-26T13:41:01.042Z,1.00
2022-07-26T13:45:09.080Z,2.20
2022-07-26T13:49:00.892Z,1.00
2022-07-26T13:52:29.183Z,1.00
2022-07-26T13:56:36.824Z,0.60
2022-07-26T14:00:17.534Z,0.80
2022-07-26T14:04:17.153Z,0.80
2022-07-26T14:07:46.725Z,1.00
2022-07-26T14:11:32.461Z,1.00
2022-07-26T14:15:40.393Z,0.90
2022-07-26T14:19:07.813Z,0.90
2022-07-26T14:23:16.231Z,0.50
2022-07-26T14:26:24.592Z,0.70
2022-07-26T14:28:57.578Z,0.60
2022-07-26T14:31:25.207Z,1.10
2022-07-26T14:33:52.375Z,0.90
2022-07-26T14:36:19.154Z,0.60
2022-07-26T14:38:46.404Z,0.90
2022-07-26T14:41:13.314Z,0.70
2022-07-26T14:44:44.458Z,0.70
2022-07-26T14:48:51.795Z,0.60
2022-07-26T14:51:58.021Z,0.70
2022-07-26T14:55:25.332Z,0.70
2022-07-26T14:59:22.142Z,1.20
2022-07-26T15:02:18.046Z,0.80
2022-07-26T15:05:05.814Z,0.90
2022-07-26T15:07:32.631Z,1.10
2022-07-26T15:10:03.252Z,0.70
2022-07-26T15:12:33.033Z,1.40
2022-07-26T15:15:02.942Z,1.20
2022-07-26T15:18:30.742Z,0.90
2022-07-26T15:22:30.202Z,1.20
2022-07-26T15:26:28.366Z,1.00
2022-07-26T15:30:19.072Z,0.90
2022-07-26T15:34:08.075Z,0.80
2022-07-26T15:37:54.195Z,1.00
2022-07-26T15:41:22.031Z,0.90
2022-07-26T15:45:12.749Z,1.40
2022-07-26T15:48:08.351Z,1.00
2022-07-26T15:50:43.034Z,0.70
2022-07-26T15:53:15.207Z,0.60
2022-07-26T15:55:45.127Z,1.00
2022-07-26T15:58:15.191Z,0.70
2022-07-26T16:00:44.928Z,0.70
2022-07-26T16:03:20.955Z,0.70
2022-07-26T16:05:47.867Z,0.70
2022-07-26T16:08:15.001Z,0.80
2022-07-26T16:10:44.236Z,0.70
2022-07-26T16:13:34.210Z,0.70
2022-07-26T16:16:01.750Z,0.90
2022-07-26T16:18:28.921Z,0.80
2022-07-26T16:20:55.905Z,0.60
2022-07-26T16:23:22.672Z,0.70
2022-07-26T16:25:49.681Z,1.00
2022-07-26T16:28:16.693Z,0.80
2022-07-26T16:30:46.336Z,1.30
2022-07-26T16:33:13.192Z,1.10
2022-07-26T16:35:43.315Z,0.90
2022-07-26T16:38:10.073Z,1.10
2022-07-26T16:40:37.414Z,0.70
2022-07-26T16:43:08.620Z,1.00
2022-07-26T16:45:36.718Z,0.90
2022-07-26T16:48:03.693Z,1.00
2022-07-26T16:50:53.542Z,0.90
2022-07-26T16:54:34.020Z,0.50
2022-07-26T16:57:16.744Z,0.90
2022-07-26T17:00:37.756Z,0.80
2022-07-26T17:03:27.629Z,1.00
2022-07-26T17:06:06.151Z,1.00
2022-07-26T17:08:33.882Z,0.80
2022-07-26T17:11:03.935Z,0.80
2022-07-26T17:14:20.589Z,0.80
2022-07-26T17:18:11.147Z,0.70
2022-07-26T17:21:16.286Z,0.60
2022-07-26T17:24:25.558Z,0.80
2022-07-26T17:27:17.292Z,0.80
2022-07-26T17:30:17.682Z,0.90
2022-07-26T17:32:44.682Z,0.80
2022-07-26T17:35:11.972Z,0.70
2022-07-26T17:37:38.739Z,0.50
2022-07-26T17:40:09.013Z,0.70
2022-07-26T17:42:37.247Z,0.50
2022-07-26T17:45:06.517Z,0.60
2022-07-26T17:47:48.678Z,0.90
2022-07-26T17:51:08.029Z,1.00
2022-07-26T17:54:40.485Z,1.00
2022-07-26T17:58:11.101Z,0.50
2022-07-26T18:01:27.526Z,0.80
2022-07-26T18:05:40.877Z,0.70
2022-07-26T18:09:24.354Z,0.70
2022-07-26T18:13:24.443Z,0.80
2022-07-26T18:16:16.929Z,0.80
2022-07-26T18:18:43.902Z,0.90
2022-07-26T18:21:10.815Z,0.60
2022-07-26T18:23:42.893Z,0.80
2022-07-26T18:26:24.172Z,0.80
2022-07-26T18:28:51.830Z,0.40
2022-07-26T18:31:41.471Z,0.60
2022-07-26T18:34:08.591Z,0.80
2022-07-26T18:36:45.927Z,0.80
2022-07-26T18:39:15.756Z,0.60
2022-07-26T18:42:23.098Z,1.10
2022-07-26T18:44:50.085Z,1.60
2022-07-26T18:47:16.937Z,1.50
2022-07-26T18:49:43.897Z,1.60
2022-07-26T18:52:10.892Z,1.50
2022-07-26T18:54:38.656Z,1.10
2022-07-26T18:57:37.186Z,1.00
2022-07-26T19:01:45.165Z,1.30
2022-07-26T19:05:53.277Z,0.90
2022-07-26T19:09:29.729Z,0.80
2022-07-26T19:13:19.437Z,0.90
2022-07-26T19:17:10.128Z,1.00
2022-07-26T19:20:33.953Z,0.70
2022-07-26T19:23:03.461Z,0.80
2022-07-26T19:25:33.006Z,0.80
2022-07-26T19:28:01.853Z,1.00
2022-07-26T19:30:31.782Z,0.80
2022-07-26T19:33:14.254Z,1.00
2022-07-26T19:35:43.499Z,0.80
2022-07-26T19:38:19.952Z,1.00
2022-07-26T19:40:49.486Z,0.90
2022-07-26T19:43:20.083Z,0.90
2022-07-26T19:45:49.019Z,0.70
2022-07-26T19:48:30.583Z,0.80
2022-07-26T19:51:58.314Z,0.90
2022-07-26T19:55:26.356Z,0.60
2022-07-26T19:58:49.272Z,0.70
2022-07-26T20:01:25.463Z,0.60
2022-07-26T20:04:23.324Z,0.30
2022-07-26T20:07:20.001Z,0.60
2022-07-26T20:10:10.650Z,0.60
2022-07-26T20:13:38.431Z,0.70
2022-07-26T20:17:27.357Z,1.00
2022-07-26T20:20:37.304Z,0.90
2022-07-26T20:23:10.874Z,1.00
2022-07-26T20:25:42.814Z,0.80
2022-07-26T20:28:21.507Z,0.60
2022-07-26T20:31:03.750Z,1.00
2022-07-26T20:33:35.701Z,0.70
2022-07-26T20:36:06.445Z,0.80
2022-07-26T20:38:33.357Z,0.50
2022-07-26T20:41:17.022Z,0.70
2022-07-26T20:44:19.945Z,0.80
2022-07-26T20:46:52.975Z,0.70
2022-07-26T20:49:30.786Z,0.80
2022-07-26T20:52:27.435Z,0.80
2022-07-26T20:55:15.202Z,0.70
2022-07-26T20:58:25.721Z,0.70
2022-07-26T21:01:23.908Z,0.60
2022-07-26T21:03:53.709Z,0.90
2022-07-26T21:06:29.648Z,0.70
2022-07-26T21:09:12.503Z,1.40
2022-07-26T21:12:12.832Z,1.00
2022-07-26T21:16:00.602Z,1.00
2022-07-26T21:18:38.348Z,0.80
2022-07-26T21:21:44.580Z,0.80
2022-07-26T21:24:14.521Z,0.90
2022-07-26T21:26:42.042Z,0.70
2022-07-26T21:29:31.826Z,0.70
2022-07-26T21:32:08.116Z,1.10
2022-07-26T21:34:43.632Z,0.80
2022-07-26T21:37:13.229Z,0.70
2022-07-26T21:39:55.863Z,1.30
2022-07-26T21:42:37.835Z,0.70
2022-07-26T21:45:33.357Z,0.90
2022-07-26T21:48:04.200Z,0.90
2022-07-26T21:50:47.390Z,1.00
2022-07-26T21:54:02.056Z,0.90
2022-07-26T21:57:25.015Z,1.00
2022-07-26T22:01:06.153Z,0.80
2022-07-26T22:04:34.502Z,0.70
2022-07-26T22:07:42.334Z,1.00
2022-07-26T22:10:44.303Z,1.00
2022-07-26T22:13:52.523Z,3.60
2022-07-26T22:16:47.637Z,0.90
2022-07-26T22:19:17.650Z,1.00
2022-07-26T22:22:25.097Z,1.10
2022-07-26T22:25:27.646Z,0.80
2022-07-26T22:28:49.726Z,0.90
2022-07-26T22:31:41.247Z,1.10
2022-07-26T22:34:24.203Z,0.90
2022-07-26T22:37:11.640Z,1.00
2022-07-26T22:40:52.242Z,0.70
2022-07-26T22:44:32.782Z,0.90
2022-07-26T22:48:44.459Z,1.10
2022-07-26T22:52:46.867Z,0.90
2022-07-26T22:56:25.598Z,1.20
2022-07-26T22:59:26.333Z,0.90
2022-07-26T23:03:34.362Z,1.20
2022-07-26T23:07:36.126Z,1.10
2022-07-26T23:11:12.870Z,1.00
2022-07-26T23:15:19.396Z,0.70
2022-07-26T23:19:02.571Z,0.80
2022-07-26T23:23:10.538Z,0.50
2022-07-26T23:27:09.114Z,0.90
2022-07-26T23:31:17.133Z,0.90
2022-07-26T23:35:08.203Z,0.60
2022-07-26T23:39:16.378Z,0.80
2022-07-26T23:43:24.324Z,0.90
2022-07-26T23:47:17.625Z,0.90
2022-07-26T23:50:18.474Z,0.90
2022-07-26T23:54:05.505Z,1.00
2022-07-26T23:58:13.494Z,0.90
